createdAt,value
2023-01-08T00:00:19.912Z,85.30
2023-01-08T00:02:49.735Z,85.20
2023-01-08T00:05:17.041Z,85.10
2023-01-08T00:07:44.218Z,85.50
2023-01-08T00:10:11.366Z,85.60
2023-01-08T00:12:38.558Z,85.80
2023-01-08T00:15:06.519Z,85.80
2023-01-08T00:17:33.699Z,85.80
2023-01-08T00:20:00.894Z,85.80
2023-01-08T00:22:28.077Z,86.00
2023-01-08T00:24:55.281Z,85.80
2023-01-08T00:27:22.477Z,85.80
2023-01-08T00:29:49.659Z,85.90
2023-01-08T00:32:16.879Z,86.00
2023-01-08T00:34:44.123Z,85.80
2023-01-08T00:37:11.379Z,85.80
2023-01-08T00:39:38.566Z,85.80
2023-01-08T00:42:05.829Z,85.80
2023-01-08T00:44:32.983Z,85.70
2023-01-08T00:47:00.175Z,85.70
2023-01-08T00:49:27.740Z,85.50
2023-01-08T00:51:55.078Z,85.30
2023-01-08T00:54:22.315Z,85.10
2023-01-08T00:56:49.507Z,84.80
2023-01-08T00:59:16.749Z,84.70
2023-01-08T01:01:44.095Z,84.40
2023-01-08T01:04:11.531Z,84.30
2023-01-08T01:06:38.831Z,84.50
2023-01-08T01:09:06.096Z,84.70
2023-01-08T01:11:33.566Z,84.70
2023-01-08T01:14:01.184Z,84.80
2023-01-08T01:16:28.555Z,84.90
2023-01-08T01:18:57.578Z,84.90
2023-01-08T01:21:28.101Z,85.10
2023-01-08T01:23:57.784Z,85.30
2023-01-08T01:26:26.103Z,85.50
2023-01-08T01:28:55.620Z,85.70
2023-01-08T01:31:24.073Z,85.90
2023-01-08T01:33:51.704Z,86.30
2023-01-08T01:36:22.584Z,86.70
2023-01-08T01:38:51.900Z,86.60
2023-01-08T01:41:30.714Z,87.30
2023-01-08T01:44:21.393Z,87.60
2023-01-08T01:46:49.826Z,87.80
2023-01-08T01:49:21.149Z,88.10
2023-01-08T01:51:55.799Z,88.50
2023-01-08T01:54:23.587Z,89.20
2023-01-08T01:56:50.973Z,89.70
2023-01-08T01:59:18.137Z,90.10
2023-01-08T02:01:46.146Z,90.30
2023-01-08T02:04:14.355Z,90.50
2023-01-08T02:07:11.030Z,90.70
2023-01-08T02:09:56.475Z,90.70
2023-01-08T02:12:31.056Z,91.10
2023-01-08T02:15:22.128Z,91.10
2023-01-08T02:18:08.799Z,91.30
2023-01-08T02:20:54.351Z,91.40
2023-01-08T02:23:46.665Z,91.40
2023-01-08T02:26:19.020Z,91.40
2023-01-08T02:29:08.530Z,91.30
2023-01-08T02:31:39.319Z,91.40
2023-01-08T02:34:06.732Z,91.30
2023-01-08T02:36:51.488Z,91.30
2023-01-08T02:39:30.890Z,91.20
2023-01-08T02:42:28.783Z,91.10
2023-01-08T02:45:01.601Z,90.90
2023-01-08T02:47:33.549Z,90.80
2023-01-08T02:50:07.658Z,90.70
2023-01-08T02:52:40.655Z,90.60
2023-01-08T02:55:09.481Z,90.50
2023-01-08T02:57:36.978Z,90.40
2023-01-08T03:00:05.465Z,90.30
2023-01-08T03:02:35.532Z,90.30
2023-01-08T03:05:14.587Z,90.20
2023-01-08T03:07:41.867Z,90.20
2023-01-08T03:10:11.154Z,90.20
2023-01-08T03:12:50.439Z,90.20
2023-01-08T03:15:24.447Z,90.30
2023-01-08T03:17:55.614Z,90.70
2023-01-08T03:20:24.963Z,90.30
2023-01-08T03:22:56.360Z,90.20
2023-01-08T03:25:25.943Z,90.20
2023-01-08T03:28:00.459Z,90.10
2023-01-08T03:30:29.335Z,90.10
2023-01-08T03:32:59.122Z,90.00
2023-01-08T03:35:27.894Z,90.00
2023-01-08T03:38:11.138Z,89.90
2023-01-08T03:40:42.982Z,89.60
2023-01-08T03:43:10.319Z,89.50
2023-01-08T03:45:41.105Z,89.30
2023-01-08T03:48:09.863Z,89.00
2023-01-08T03:50:37.306Z,88.60
2023-01-08T03:53:04.544Z,88.30
2023-01-08T03:55:31.841Z,88.10
2023-01-08T03:57:59.102Z,87.70
2023-01-08T04:00:26.433Z,87.40
2023-01-08T04:02:54.276Z,87.20
2023-01-08T04:05:21.585Z,87.00
2023-01-08T04:07:48.784Z,86.80
2023-01-08T04:10:16.127Z,85.70
2023-01-08T04:12:43.826Z,86.40
2023-01-08T04:15:11.383Z,86.10
2023-01-08T04:17:38.672Z,86.10
2023-01-08T04:20:06.525Z,86.20
2023-01-08T04:22:33.815Z,86.40
2023-01-08T04:25:01.042Z,86.50
2023-01-08T04:27:28.185Z,86.60
2023-01-08T04:29:55.437Z,86.80
2023-01-08T04:32:22.716Z,87.00
2023-01-08T04:34:49.954Z,87.10
2023-01-08T04:37:17.192Z,87.20
2023-01-08T04:39:44.354Z,87.30
2023-01-08T04:42:11.530Z,87.50
2023-01-08T04:44:38.660Z,87.50
2023-01-08T04:47:05.809Z,87.40
2023-01-08T04:49:32.958Z,86.70
2023-01-08T04:52:00.208Z,87.50
2023-01-08T04:54:27.348Z,87.60
2023-01-08T04:56:54.480Z,87.60
2023-01-08T04:59:21.638Z,87.60
2023-01-08T05:01:48.963Z,87.70
2023-01-08T05:04:19.215Z,87.70
2023-01-08T05:06:46.420Z,88.70
2023-01-08T05:09:13.582Z,87.70
2023-01-08T05:11:41.120Z,87.70
2023-01-08T05:14:08.371Z,87.60
2023-01-08T05:16:35.620Z,87.50
2023-01-08T05:19:02.799Z,87.40
2023-01-08T05:21:30.003Z,87.30
2023-01-08T05:23:57.219Z,87.30
2023-01-08T05:26:24.422Z,87.30
2023-01-08T05:28:52.808Z,87.30
2023-01-08T05:31:20.017Z,87.30
2023-01-08T05:33:47.286Z,87.40
2023-01-08T05:36:14.768Z,87.50
2023-01-08T05:38:42.041Z,87.70
2023-01-08T05:41:10.338Z,87.20
2023-01-08T05:43:37.611Z,88.00
2023-01-08T05:46:05.877Z,88.50
2023-01-08T05:48:37.565Z,88.70
2023-01-08T05:51:05.262Z,88.80
2023-01-08T05:53:33.026Z,90.00
2023-01-08T05:56:08.207Z,89.70
2023-01-08T05:58:36.309Z,90.00
2023-01-08T06:01:17.459Z,90.00
2023-01-08T06:03:44.975Z,90.10
2023-01-08T06:06:12.633Z,90.10
2023-01-08T06:08:40.150Z,90.20
2023-01-08T06:11:09.152Z,90.40
2023-01-08T06:13:37.882Z,90.60
2023-01-08T06:16:05.553Z,90.80
2023-01-08T06:18:32.860Z,90.90
2023-01-08T06:21:01.128Z,91.00
2023-01-08T06:23:28.777Z,91.00
2023-01-08T06:25:57.738Z,91.10
2023-01-08T06:28:24.975Z,91.10
2023-01-08T06:30:52.690Z,91.20
2023-01-08T06:33:22.152Z,91.20
2023-01-08T06:35:49.405Z,91.30
2023-01-08T06:38:19.212Z,91.30
2023-01-08T06:40:47.500Z,91.90
2023-01-08T06:43:14.970Z,91.50
2023-01-08T06:45:42.147Z,91.60
2023-01-08T06:48:09.335Z,91.70
2023-01-08T06:50:36.537Z,91.70
2023-01-08T06:53:03.704Z,91.70
2023-01-08T06:55:30.884Z,91.80
2023-01-08T06:57:59.023Z,91.80
2023-01-08T07:00:27.184Z,91.80
2023-01-08T07:02:55.068Z,91.90
2023-01-08T07:05:23.084Z,91.90
2023-01-08T07:07:50.427Z,91.90
2023-01-08T07:10:19.912Z,91.70
2023-01-08T07:12:48.000Z,92.00
2023-01-08T07:15:15.686Z,92.00
2023-01-08T07:17:42.807Z,92.00
2023-01-08T07:20:10.406Z,92.10
2023-01-08T07:22:37.652Z,92.10
2023-01-08T07:25:05.328Z,92.10
2023-01-08T07:27:32.543Z,92.10
2023-01-08T07:29:59.707Z,91.60
2023-01-08T07:32:26.900Z,92.10
2023-01-08T07:34:54.728Z,92.10
2023-01-08T07:37:21.988Z,92.10
2023-01-08T07:39:49.269Z,92.10
2023-01-08T07:42:16.511Z,92.20
2023-01-08T07:44:43.708Z,92.20
2023-01-08T07:47:11.022Z,92.20
2023-01-08T07:49:38.232Z,92.20
2023-01-08T07:52:05.423Z,92.10
2023-01-08T07:54:32.644Z,92.00
2023-01-08T07:56:59.779Z,92.00
2023-01-08T07:59:26.911Z,91.50
2023-01-08T08:01:54.241Z,91.80
2023-01-08T08:04:21.518Z,91.60
2023-01-08T08:06:48.717Z,91.60
2023-01-08T08:09:16.029Z,91.10
2023-01-08T08:11:43.219Z,91.50
2023-01-08T08:14:10.420Z,91.40
2023-01-08T08:16:37.924Z,91.30
2023-01-08T08:19:05.103Z,91.10
2023-01-08T08:21:32.591Z,91.00
2023-01-08T08:23:59.990Z,90.90
2023-01-08T08:26:27.183Z,90.70
2023-01-08T08:28:54.336Z,90.60
2023-01-08T08:31:21.652Z,90.40
2023-01-08T08:33:48.845Z,90.20
2023-01-08T08:36:16.214Z,90.20
2023-01-08T08:38:43.391Z,90.00
2023-01-08T08:41:10.660Z,89.80
2023-01-08T08:43:37.809Z,89.30
2023-01-08T08:46:05.144Z,89.20
2023-01-08T08:48:32.339Z,88.80
2023-01-08T08:50:59.486Z,88.50
2023-01-08T08:53:27.768Z,88.20
2023-01-08T08:55:57.593Z,88.10
2023-01-08T08:58:24.771Z,88.10
2023-01-08T09:00:51.939Z,87.10
2023-01-08T09:03:19.268Z,84.50
2023-01-08T09:05:46.541Z,80.30
2023-01-08T09:08:13.813Z,75.70
2023-01-08T09:10:42.361Z,71.30
2023-01-08T09:13:09.889Z,67.90
2023-01-08T09:15:38.221Z,66.70
2023-01-08T09:18:05.796Z,63.00
2023-01-08T09:20:33.170Z,60.30
2023-01-08T09:23:02.016Z,56.60
2023-01-08T09:25:29.991Z,55.30
2023-01-08T09:28:01.954Z,54.20
2023-01-08T09:30:29.257Z,51.10
2023-01-08T09:33:02.383Z,50.90
2023-01-08T09:35:31.038Z,49.60
2023-01-08T09:37:58.891Z,48.40
2023-01-08T09:40:36.688Z,46.90
2023-01-08T09:43:05.971Z,46.90
2023-01-08T09:45:39.451Z,46.90
2023-01-08T09:48:12.455Z,45.40
2023-01-08T09:50:39.876Z,44.20
2023-01-08T09:53:12.941Z,42.80
2023-01-08T09:55:40.700Z,43.70
2023-01-08T09:58:28.697Z,43.60
2023-01-08T10:00:56.765Z,43.80
2023-01-08T10:03:30.489Z,44.90
2023-01-08T10:05:57.695Z,43.70
2023-01-08T10:08:24.886Z,41.70
2023-01-08T10:10:52.466Z,42.50
2023-01-08T10:13:19.730Z,43.80
2023-01-08T10:15:47.607Z,42.90
2023-01-08T10:18:18.051Z,43.10
2023-01-08T10:20:45.395Z,43.60
2023-01-08T10:23:16.498Z,42.90
2023-01-08T10:25:53.177Z,43.20
2023-01-08T10:28:23.753Z,42.30
2023-01-08T10:30:53.010Z,40.40
2023-01-08T10:33:31.583Z,40.10
2023-01-08T10:36:02.840Z,40.60
2023-01-08T10:38:41.723Z,41.00
2023-01-08T10:41:14.962Z,40.50
2023-01-08T10:44:00.052Z,39.70
2023-01-08T10:46:42.704Z,39.60
2023-01-08T10:49:27.726Z,40.00
2023-01-08T10:51:55.642Z,41.20
2023-01-08T10:54:39.523Z,40.80
2023-01-08T10:57:25.058Z,41.20
2023-01-08T10:59:53.002Z,48.70
2023-01-08T11:02:39.215Z,51.10
2023-01-08T11:05:10.857Z,56.60
2023-01-08T11:07:40.158Z,53.50
2023-01-08T11:10:22.653Z,56.90
2023-01-08T11:12:59.115Z,53.80
2023-01-08T11:15:32.874Z,58.10
2023-01-08T11:18:24.556Z,64.10
2023-01-08T11:20:54.045Z,68.40
2023-01-08T11:23:26.815Z,70.00
2023-01-08T11:26:11.359Z,71.80
2023-01-08T11:29:07.802Z,72.00
2023-01-08T11:31:43.850Z,72.10
2023-01-08T11:34:18.100Z,73.10
2023-01-08T11:37:02.341Z,73.10
2023-01-08T11:39:29.888Z,73.50
2023-01-08T11:42:08.956Z,74.40
2023-01-08T11:45:11.928Z,75.50
2023-01-08T11:47:51.256Z,74.50
2023-01-08T11:50:52.397Z,75.00
2023-01-08T11:53:30.217Z,63.10
2023-01-08T11:56:03.047Z,54.90
2023-01-08T11:58:42.140Z,48.60
2023-01-08T12:01:56.866Z,49.70
2023-01-08T12:05:04.519Z,45.10
2023-01-08T12:07:43.892Z,43.50
2023-01-08T12:10:38.967Z,49.60
2023-01-08T12:13:24.252Z,56.00
2023-01-08T12:16:09.810Z,62.90
2023-01-08T12:18:59.792Z,66.40
2023-01-08T12:21:36.502Z,65.20
2023-01-08T12:24:50.949Z,52.10
2023-01-08T12:27:57.303Z,45.50
2023-01-08T12:30:33.351Z,41.40
2023-01-08T12:33:09.870Z,39.70
2023-01-08T12:35:54.003Z,39.40
2023-01-08T12:38:32.160Z,37.90
2023-01-08T12:41:09.822Z,45.30
2023-01-08T12:43:55.622Z,49.40
2023-01-08T12:46:25.733Z,48.70
2023-01-08T12:48:55.489Z,47.80
2023-01-08T12:51:39.836Z,43.30
2023-01-08T12:54:40.465Z,43.50
2023-01-08T12:57:10.399Z,41.70
2023-01-08T12:59:51.022Z,45.20
2023-01-08T13:02:52.124Z,42.40
2023-01-08T13:05:19.311Z,39.00
2023-01-08T13:07:51.038Z,39.90
2023-01-08T13:10:38.913Z,39.20
2023-01-08T13:13:34.041Z,39.60
2023-01-08T13:16:17.090Z,39.60
2023-01-08T13:18:59.501Z,38.90
2023-01-08T13:21:44.166Z,37.30
2023-01-08T13:24:35.444Z,38.00
2023-01-08T13:27:14.640Z,42.70
2023-01-08T13:29:43.145Z,45.60
2023-01-08T13:32:23.973Z,48.90
2023-01-08T13:35:22.183Z,51.60
2023-01-08T13:38:05.325Z,58.10
2023-01-08T13:40:38.349Z,55.30
2023-01-08T13:43:17.891Z,48.60
2023-01-08T13:45:58.267Z,45.20
2023-01-08T13:48:32.353Z,43.90
2023-01-08T13:50:59.932Z,43.60
2023-01-08T13:53:27.197Z,46.00
2023-01-08T13:56:00.230Z,46.60
2023-01-08T13:58:33.667Z,46.50
2023-01-08T14:01:02.971Z,45.40
2023-01-08T14:03:46.273Z,45.10
2023-01-08T14:06:16.091Z,45.80
2023-01-08T14:08:53.987Z,45.90
2023-01-08T14:11:23.996Z,45.20
2023-01-08T14:13:51.599Z,45.40
2023-01-08T14:16:20.173Z,46.60
2023-01-08T14:18:47.869Z,46.90
2023-01-08T14:21:20.129Z,48.40
2023-01-08T14:23:48.721Z,49.00
2023-01-08T14:26:30.610Z,48.40
2023-01-08T14:28:58.226Z,48.10
2023-01-08T14:31:27.414Z,48.90
2023-01-08T14:33:56.984Z,48.80
2023-01-08T14:36:24.523Z,50.60
2023-01-08T14:38:52.327Z,51.30
2023-01-08T14:42:00.210Z,55.30
2023-01-08T14:44:36.714Z,59.60
2023-01-08T14:47:15.167Z,63.10
2023-01-08T14:49:44.594Z,62.30
2023-01-08T14:52:13.376Z,63.40
2023-01-08T14:54:40.655Z,62.90
2023-01-08T14:57:07.822Z,63.60
2023-01-08T14:59:39.743Z,64.10
2023-01-08T15:02:23.159Z,64.60
2023-01-08T15:05:01.199Z,65.70
2023-01-08T15:07:28.485Z,66.90
2023-01-08T15:09:58.542Z,68.60
2023-01-08T15:12:27.857Z,70.10
2023-01-08T15:14:55.231Z,71.20
2023-01-08T15:17:25.652Z,72.20
2023-01-08T15:19:56.289Z,72.60
2023-01-08T15:22:26.839Z,73.00
2023-01-08T15:25:02.558Z,73.40
2023-01-08T15:27:34.237Z,73.50
2023-01-08T15:30:03.701Z,74.00
2023-01-08T15:32:34.682Z,74.10
2023-01-08T15:35:01.889Z,74.10
2023-01-08T15:37:30.362Z,74.40
2023-01-08T15:39:57.831Z,74.50
2023-01-08T15:42:48.831Z,74.70
2023-01-08T15:45:18.998Z,75.10
2023-01-08T15:47:46.481Z,75.70
2023-01-08T15:50:14.000Z,75.60
2023-01-08T15:52:42.815Z,76.60
2023-01-08T15:55:17.011Z,77.30
2023-01-08T15:57:44.219Z,77.50
2023-01-08T16:00:16.256Z,77.80
2023-01-08T16:02:48.324Z,78.30
2023-01-08T16:05:17.595Z,78.50
2023-01-08T16:07:48.128Z,78.80
2023-01-08T16:10:16.765Z,79.20
2023-01-08T16:12:44.371Z,79.30
2023-01-08T16:15:13.344Z,79.40
2023-01-08T16:17:41.015Z,79.60
2023-01-08T16:20:09.349Z,79.90
2023-01-08T16:22:36.583Z,80.10
2023-01-08T16:25:04.505Z,80.20
2023-01-08T16:27:32.418Z,80.20
2023-01-08T16:30:00.169Z,80.30
2023-01-08T16:32:27.404Z,80.20
2023-01-08T16:34:54.955Z,80.40
2023-01-08T16:37:22.847Z,80.60
2023-01-08T16:39:50.054Z,80.80
2023-01-08T16:42:17.262Z,80.70
2023-01-08T16:44:45.294Z,80.70
2023-01-08T16:47:12.474Z,81.10
2023-01-08T16:49:41.627Z,81.20
2023-01-08T16:52:09.503Z,80.80
2023-01-08T16:54:37.539Z,80.30
2023-01-08T16:57:04.837Z,80.10
2023-01-08T16:59:32.933Z,80.00
2023-01-08T17:02:00.423Z,79.80
2023-01-08T17:04:29.748Z,79.50
2023-01-08T17:06:57.418Z,79.50
2023-01-08T17:09:25.271Z,79.40
2023-01-08T17:11:52.508Z,79.40
2023-01-08T17:14:19.834Z,79.50
2023-01-08T17:16:48.949Z,79.50
2023-01-08T17:19:17.185Z,78.80
2023-01-08T17:21:45.894Z,79.60
2023-01-08T17:24:13.170Z,79.60
2023-01-08T17:26:40.505Z,79.70
2023-01-08T17:29:07.752Z,79.80
2023-01-08T17:31:39.921Z,79.80
2023-01-08T17:34:11.273Z,79.80
2023-01-08T17:36:38.587Z,79.80
2023-01-08T17:39:05.955Z,79.80
2023-01-08T17:41:53.854Z,79.70
2023-01-08T17:44:21.171Z,79.70
2023-01-08T17:46:48.966Z,79.60
2023-01-08T17:49:17.032Z,79.50
2023-01-08T17:51:45.696Z,79.20
2023-01-08T17:54:17.118Z,79.20
2023-01-08T17:56:44.560Z,79.10
2023-01-08T17:59:14.259Z,79.10
2023-01-08T18:01:41.943Z,79.10
2023-01-08T18:04:09.189Z,79.00
2023-01-08T18:06:36.377Z,78.90
2023-01-08T18:09:03.919Z,79.00
2023-01-08T18:11:31.216Z,79.10
2023-01-08T18:14:00.379Z,79.20
2023-01-08T18:16:28.645Z,78.90
2023-01-08T18:18:56.893Z,79.00
2023-01-08T18:21:24.910Z,78.30
2023-01-08T18:23:52.453Z,79.20
2023-01-08T18:26:20.733Z,78.80
2023-01-08T18:28:48.450Z,79.90
2023-01-08T18:31:15.788Z,81.50
2023-01-08T18:33:43.196Z,82.70
2023-01-08T18:36:12.551Z,83.80
2023-01-08T18:38:43.015Z,84.50
2023-01-08T18:41:32.803Z,85.50
2023-01-08T18:44:00.870Z,86.00
2023-01-08T18:46:28.041Z,86.40
2023-01-08T18:48:55.654Z,86.70
2023-01-08T18:51:23.091Z,86.40
2023-01-08T18:53:50.677Z,86.00
2023-01-08T18:56:23.313Z,85.80
2023-01-08T18:58:50.642Z,85.60
2023-01-08T19:01:17.999Z,85.40
2023-01-08T19:03:45.199Z,85.20
2023-01-08T19:06:13.617Z,84.90
2023-01-08T19:08:41.921Z,84.70
2023-01-08T19:11:10.394Z,84.30
2023-01-08T19:13:38.689Z,84.10
2023-01-08T19:16:07.736Z,84.00
2023-01-08T19:18:35.970Z,84.00
2023-01-08T19:21:09.205Z,83.90
2023-01-08T19:23:36.410Z,83.50
2023-01-08T19:26:08.040Z,84.00
2023-01-08T19:28:35.848Z,82.90
2023-01-08T19:31:03.537Z,82.80
2023-01-08T19:33:31.019Z,82.60
2023-01-08T19:36:05.645Z,82.50
2023-01-08T19:38:32.799Z,82.30
2023-01-08T19:41:00.540Z,82.50
2023-01-08T19:43:42.999Z,82.70
2023-01-08T19:46:15.474Z,82.70
2023-01-08T19:48:44.059Z,82.70
2023-01-08T19:51:12.545Z,82.90
2023-01-08T19:53:40.064Z,83.20
2023-01-08T19:56:10.341Z,83.40
2023-01-08T19:58:37.663Z,83.60
2023-01-08T20:01:14.554Z,83.70
2023-01-08T20:03:43.209Z,83.70
2023-01-08T20:06:19.784Z,84.00
2023-01-08T20:08:48.778Z,83.90
2023-01-08T20:11:17.483Z,83.10
2023-01-08T20:13:45.024Z,83.70
2023-01-08T20:16:16.050Z,83.30
2023-01-08T20:18:45.786Z,82.80
2023-01-08T20:21:21.041Z,82.60
2023-01-08T20:23:48.762Z,82.50
2023-01-08T20:26:19.735Z,82.60
2023-01-08T20:28:47.231Z,82.60
2023-01-08T20:31:16.986Z,82.60
2023-01-08T20:33:44.813Z,82.60
2023-01-08T20:36:21.969Z,82.60
2023-01-08T20:38:54.218Z,82.80
2023-01-08T20:41:21.834Z,82.80
2023-01-08T20:43:49.423Z,83.40
2023-01-08T20:46:16.878Z,83.00
2023-01-08T20:48:48.404Z,83.00
2023-01-08T20:51:16.282Z,83.00
2023-01-08T20:53:43.497Z,82.80
2023-01-08T20:56:13.844Z,82.90
2023-01-08T20:58:43.861Z,83.00
2023-01-08T21:01:14.361Z,83.00
2023-01-08T21:03:42.365Z,83.10
2023-01-08T21:06:12.250Z,83.10
2023-01-08T21:08:40.753Z,83.20
2023-01-08T21:11:09.439Z,83.20
2023-01-08T21:13:37.573Z,83.10
2023-01-08T21:16:09.567Z,82.90
2023-01-08T21:18:36.968Z,82.70
2023-01-08T21:21:05.906Z,82.40
2023-01-08T21:23:34.132Z,82.60
2023-01-08T21:26:04.555Z,83.10
2023-01-08T21:28:32.263Z,83.50
2023-01-08T21:31:06.352Z,83.50
2023-01-08T21:33:33.850Z,83.10
2023-01-08T21:36:21.906Z,84.70
2023-01-08T21:38:50.297Z,86.30
2023-01-08T21:41:38.513Z,87.50
2023-01-08T21:44:29.391Z,88.40
2023-01-08T21:46:59.197Z,89.20
2023-01-08T21:49:27.007Z,89.70
2023-01-08T21:52:13.114Z,90.00
2023-01-08T21:54:40.507Z,90.30
2023-01-08T21:57:08.545Z,90.40
2023-01-08T21:59:36.187Z,90.60
2023-01-08T22:02:04.205Z,91.00
2023-01-08T22:04:31.603Z,91.10
2023-01-08T22:06:59.061Z,91.30
2023-01-08T22:09:26.266Z,91.50
2023-01-08T22:11:55.658Z,91.90
2023-01-08T22:14:23.058Z,91.80
2023-01-08T22:16:50.472Z,92.10
2023-01-08T22:19:17.819Z,92.10
2023-01-08T22:21:45.646Z,92.40
2023-01-08T22:24:12.887Z,92.50
2023-01-08T22:26:40.080Z,92.60
2023-01-08T22:29:07.290Z,92.30
2023-01-08T22:31:35.031Z,92.60
2023-01-08T22:34:02.364Z,92.70
2023-01-08T22:36:29.578Z,92.70
2023-01-08T22:38:56.891Z,92.60
2023-01-08T22:41:24.869Z,92.00
2023-01-08T22:43:56.662Z,92.30
2023-01-08T22:46:25.024Z,92.20
2023-01-08T22:48:52.755Z,92.20
2023-01-08T22:51:29.538Z,92.10
2023-01-08T22:53:58.314Z,92.00
2023-01-08T22:56:26.380Z,91.90
2023-01-08T22:58:54.130Z,91.90
2023-01-08T23:01:23.858Z,91.80
2023-01-08T23:03:52.509Z,91.90
2023-01-08T23:06:21.220Z,91.90
2023-01-08T23:08:49.260Z,92.00
2023-01-08T23:11:18.855Z,92.10
2023-01-08T23:13:47.042Z,92.10
2023-01-08T23:16:17.226Z,92.10
2023-01-08T23:18:44.510Z,92.10
2023-01-08T23:21:17.972Z,92.20
2023-01-08T23:23:45.422Z,92.10
2023-01-08T23:26:22.480Z,92.10
2023-01-08T23:28:50.572Z,92.20
2023-01-08T23:31:23.935Z,92.20
2023-01-08T23:33:52.032Z,92.20
2023-01-08T23:36:21.102Z,92.20
2023-01-08T23:38:51.147Z,92.10
2023-01-08T23:41:19.926Z,92.10
2023-01-08T23:43:48.763Z,92.50
2023-01-08T23:46:16.488Z,92.00
2023-01-08T23:48:43.844Z,92.00
2023-01-08T23:51:11.152Z,91.90
2023-01-08T23:53:38.460Z,91.80
2023-01-08T23:56:05.995Z,91.80
2023-01-08T23:58:33.241Z,91.80
